sensor_id;sensor_type;location;lat;lon;timestamp;P1;durP1;ratioP1;P2;durP2;ratioP2
65691;SDS011;52411;52.716;6.696;2024-01-11T00:01:10;50.08;;;20.58;;
65691;SDS011;52411;52.716;6.696;2024-01-11T00:03:35;47.80;;;20.77;;
65691;SDS011;52411;52.716;6.696;2024-01-11T00:06:01;44.55;;;20.08;;
65691;SDS011;52411;52.716;6.696;2024-01-11T00:08:26;49.35;;;20.00;;
65691;SDS011;52411;52.716;6.696;2024-01-11T00:10:52;48.83;;;19.77;;
65691;SDS011;52411;52.716;6.696;2024-01-11T00:13:18;46.25;;;20.13;;
65691;SDS011;52411;52.716;6.696;2024-01-11T00:15:43;47.10;;;20.42;;
65691;SDS011;52411;52.716;6.696;2024-01-11T00:18:09;45.20;;;20.92;;
65691;SDS011;52411;52.716;6.696;2024-01-11T00:20:34;50.00;;;20.95;;
65691;SDS011;52411;52.716;6.696;2024-01-11T00:23:00;46.08;;;20.38;;
65691;SDS011;52411;52.716;6.696;2024-01-11T00:25:25;44.33;;;19.02;;
65691;SDS011;52411;52.716;6.696;2024-01-11T00:27:51;50.80;;;21.40;;
65691;SDS011;52411;52.716;6.696;2024-01-11T00:30:16;55.72;;;22.23;;
65691;SDS011;52411;52.716;6.696;2024-01-11T00:32:42;50.67;;;21.30;;
65691;SDS011;52411;52.716;6.696;2024-01-11T00:35:08;45.97;;;20.92;;
65691;SDS011;52411;52.716;6.696;2024-01-11T00:37:33;47.78;;;21.02;;
65691;SDS011;52411;52.716;6.696;2024-01-11T00:39:59;49.92;;;21.80;;
65691;SDS011;52411;52.716;6.696;2024-01-11T00:42:24;46.25;;;20.80;;
65691;SDS011;52411;52.716;6.696;2024-01-11T00:44:50;49.50;;;21.63;;
65691;SDS011;52411;52.716;6.696;2024-01-11T00:47:15;52.13;;;22.58;;
65691;SDS011;52411;52.716;6.696;2024-01-11T00:49:41;53.40;;;22.58;;
65691;SDS011;52411;52.716;6.696;2024-01-11T00:52:07;51.63;;;21.85;;
65691;SDS011;52411;52.716;6.696;2024-01-11T00:54:34;48.85;;;21.27;;
65691;SDS011;52411;52.716;6.696;2024-01-11T00:57:00;47.65;;;20.88;;
65691;SDS011;52411;52.716;6.696;2024-01-11T00:59:26;50.90;;;23.20;;
65691;SDS011;52411;52.716;6.696;2024-01-11T01:01:52;51.17;;;23.08;;
65691;SDS011;52411;52.716;6.696;2024-01-11T01:04:17;48.45;;;21.60;;
65691;SDS011;52411;52.716;6.696;2024-01-11T01:06:43;48.50;;;21.40;;
65691;SDS011;52411;52.716;6.696;2024-01-11T01:09:09;57.10;;;22.90;;
65691;SDS011;52411;52.716;6.696;2024-01-11T01:11:34;51.33;;;22.63;;
65691;SDS011;52411;52.716;6.696;2024-01-11T01:14:00;45.53;;;20.55;;
65691;SDS011;52411;52.716;6.696;2024-01-11T01:16:25;52.72;;;20.65;;
65691;SDS011;52411;52.716;6.696;2024-01-11T01:18:51;51.58;;;21.42;;
65691;SDS011;52411;52.716;6.696;2024-01-11T01:21:17;51.33;;;23.23;;
65691;SDS011;52411;52.716;6.696;2024-01-11T01:23:43;51.30;;;23.00;;
65691;SDS011;52411;52.716;6.696;2024-01-11T01:26:08;51.78;;;21.67;;
65691;SDS011;52411;52.716;6.696;2024-01-11T01:28:34;51.05;;;22.10;;
65691;SDS011;52411;52.716;6.696;2024-01-11T01:30:59;54.72;;;23.05;;
65691;SDS011;52411;52.716;6.696;2024-01-11T01:33:25;49.72;;;21.58;;
65691;SDS011;52411;52.716;6.696;2024-01-11T01:35:50;49.35;;;21.00;;
65691;SDS011;52411;52.716;6.696;2024-01-11T01:38:16;51.10;;;21.48;;
65691;SDS011;52411;52.716;6.696;2024-01-11T01:40:42;47.75;;;20.65;;
65691;SDS011;52411;52.716;6.696;2024-01-11T01:43:08;42.75;;;18.52;;
65691;SDS011;52411;52.716;6.696;2024-01-11T01:45:34;50.47;;;21.77;;
65691;SDS011;52411;52.716;6.696;2024-01-11T01:48:00;52.03;;;21.58;;
65691;SDS011;52411;52.716;6.696;2024-01-11T01:50:26;49.15;;;20.52;;
65691;SDS011;52411;52.716;6.696;2024-01-11T01:52:51;54.63;;;22.17;;
65691;SDS011;52411;52.716;6.696;2024-01-11T01:55:18;51.40;;;21.92;;
65691;SDS011;52411;52.716;6.696;2024-01-11T01:57:44;52.47;;;22.85;;
65691;SDS011;52411;52.716;6.696;2024-01-11T02:00:11;54.72;;;21.77;;
65691;SDS011;52411;52.716;6.696;2024-01-11T02:02:37;50.03;;;22.60;;
65691;SDS011;52411;52.716;6.696;2024-01-11T02:05:05;55.17;;;22.70;;
65691;SDS011;52411;52.716;6.696;2024-01-11T02:07:31;56.25;;;22.42;;
65691;SDS011;52411;52.716;6.696;2024-01-11T02:09:57;53.53;;;22.55;;
65691;SDS011;52411;52.716;6.696;2024-01-11T02:12:23;55.88;;;23.02;;
65691;SDS011;52411;52.716;6.696;2024-01-11T02:14:50;54.15;;;22.83;;
65691;SDS011;52411;52.716;6.696;2024-01-11T02:17:16;52.95;;;21.90;;
65691;SDS011;52411;52.716;6.696;2024-01-11T02:19:42;53.42;;;22.30;;
65691;SDS011;52411;52.716;6.696;2024-01-11T02:25:13;56.25;;;21.50;;
65691;SDS011;52411;52.716;6.696;2024-01-11T02:27:45;51.13;;;20.02;;
65691;SDS011;52411;52.716;6.696;2024-01-11T02:30:12;54.13;;;21.67;;
65691;SDS011;52411;52.716;6.696;2024-01-11T02:32:38;54.67;;;22.05;;
65691;SDS011;52411;52.716;6.696;2024-01-11T02:35:04;48.33;;;22.38;;
65691;SDS011;52411;52.716;6.696;2024-01-11T02:37:30;52.13;;;21.50;;
65691;SDS011;52411;52.716;6.696;2024-01-11T02:39:56;57.63;;;22.42;;
65691;SDS011;52411;52.716;6.696;2024-01-11T02:42:21;57.85;;;21.85;;
65691;SDS011;52411;52.716;6.696;2024-01-11T02:44:47;55.20;;;21.95;;
65691;SDS011;52411;52.716;6.696;2024-01-11T02:47:13;53.22;;;22.50;;
65691;SDS011;52411;52.716;6.696;2024-01-11T02:49:38;52.53;;;21.65;;
65691;SDS011;52411;52.716;6.696;2024-01-11T02:52:04;48.75;;;20.58;;
65691;SDS011;52411;52.716;6.696;2024-01-11T02:54:30;54.30;;;22.70;;
65691;SDS011;52411;52.716;6.696;2024-01-11T02:56:55;53.03;;;21.13;;
65691;SDS011;52411;52.716;6.696;2024-01-11T02:59:22;51.85;;;21.25;;
65691;SDS011;52411;52.716;6.696;2024-01-11T03:01:48;50.90;;;21.85;;
65691;SDS011;52411;52.716;6.696;2024-01-11T03:04:14;53.23;;;21.03;;
65691;SDS011;52411;52.716;6.696;2024-01-11T03:06:40;57.90;;;22.37;;
65691;SDS011;52411;52.716;6.696;2024-01-11T03:09:06;54.35;;;22.05;;
65691;SDS011;52411;52.716;6.696;2024-01-11T03:11:31;59.67;;;23.10;;
65691;SDS011;52411;52.716;6.696;2024-01-11T03:13:57;53.85;;;21.05;;
65691;SDS011;52411;52.716;6.696;2024-01-11T03:16:22;54.35;;;21.52;;
65691;SDS011;52411;52.716;6.696;2024-01-11T03:18:48;56.08;;;21.85;;
65691;SDS011;52411;52.716;6.696;2024-01-11T03:21:13;51.63;;;21.67;;
65691;SDS011;52411;52.716;6.696;2024-01-11T03:23:39;52.73;;;21.93;;
65691;SDS011;52411;52.716;6.696;2024-01-11T03:26:11;52.97;;;22.33;;
65691;SDS011;52411;52.716;6.696;2024-01-11T03:28:41;41.53;;;18.27;;
65691;SDS011;52411;52.716;6.696;2024-01-11T03:31:07;56.38;;;23.25;;
65691;SDS011;52411;52.716;6.696;2024-01-11T03:33:34;50.72;;;19.77;;
65691;SDS011;52411;52.716;6.696;2024-01-11T03:35:59;41.72;;;17.38;;
65691;SDS011;52411;52.716;6.696;2024-01-11T03:38:31;51.85;;;20.60;;
65691;SDS011;52411;52.716;6.696;2024-01-11T03:40:56;45.95;;;18.67;;
65691;SDS011;52411;52.716;6.696;2024-01-11T03:43:22;47.05;;;20.08;;
65691;SDS011;52411;52.716;6.696;2024-01-11T03:45:47;41.28;;;18.40;;
65691;SDS011;52411;52.716;6.696;2024-01-11T03:48:13;49.80;;;21.00;;
65691;SDS011;52411;52.716;6.696;2024-01-11T03:50:38;48.60;;;21.10;;
65691;SDS011;52411;52.716;6.696;2024-01-11T03:53:04;51.42;;;21.05;;
65691;SDS011;52411;52.716;6.696;2024-01-11T03:55:29;45.25;;;19.20;;
65691;SDS011;52411;52.716;6.696;2024-01-11T03:57:55;55.05;;;22.85;;
65691;SDS011;52411;52.716;6.696;2024-01-11T04:00:20;48.65;;;19.73;;
65691;SDS011;52411;52.716;6.696;2024-01-11T04:02:46;49.95;;;20.15;;
65691;SDS011;52411;52.716;6.696;2024-01-11T04:05:11;52.05;;;19.77;;
65691;SDS011;52411;52.716;6.696;2024-01-11T04:07:37;51.58;;;21.38;;
65691;SDS011;52411;52.716;6.696;2024-01-11T04:10:03;57.42;;;22.45;;
65691;SDS011;52411;52.716;6.696;2024-01-11T04:12:29;49.30;;;20.60;;
65691;SDS011;52411;52.716;6.696;2024-01-11T04:14:54;51.42;;;21.10;;
65691;SDS011;52411;52.716;6.696;2024-01-11T04:17:20;51.63;;;22.23;;
65691;SDS011;52411;52.716;6.696;2024-01-11T04:19:45;53.93;;;21.73;;
65691;SDS011;52411;52.716;6.696;2024-01-11T04:22:11;50.63;;;20.67;;
65691;SDS011;52411;52.716;6.696;2024-01-11T04:24:36;53.80;;;23.20;;
65691;SDS011;52411;52.716;6.696;2024-01-11T04:27:02;48.63;;;19.27;;
65691;SDS011;52411;52.716;6.696;2024-01-11T04:29:28;61.55;;;22.98;;
65691;SDS011;52411;52.716;6.696;2024-01-11T04:31:53;56.53;;;21.58;;
65691;SDS011;52411;52.716;6.696;2024-01-11T04:34:19;51.93;;;21.93;;
65691;SDS011;52411;52.716;6.696;2024-01-11T04:36:44;54.42;;;20.95;;
65691;SDS011;52411;52.716;6.696;2024-01-11T04:39:10;50.83;;;20.23;;
65691;SDS011;52411;52.716;6.696;2024-01-11T04:41:36;52.70;;;21.77;;
65691;SDS011;52411;52.716;6.696;2024-01-11T04:44:03;56.78;;;22.52;;
65691;SDS011;52411;52.716;6.696;2024-01-11T04:46:29;57.30;;;21.85;;
65691;SDS011;52411;52.716;6.696;2024-01-11T04:48:54;55.80;;;22.60;;
65691;SDS011;52411;52.716;6.696;2024-01-11T04:51:20;52.35;;;21.52;;
65691;SDS011;52411;52.716;6.696;2024-01-11T04:53:45;50.03;;;19.80;;
65691;SDS011;52411;52.716;6.696;2024-01-11T04:56:13;51.20;;;20.98;;
65691;SDS011;52411;52.716;6.696;2024-01-11T04:58:40;39.17;;;15.27;;
65691;SDS011;52411;52.716;6.696;2024-01-11T05:01:11;46.07;;;17.27;;
65691;SDS011;52411;52.716;6.696;2024-01-11T05:03:38;48.33;;;21.00;;
65691;SDS011;52411;52.716;6.696;2024-01-11T05:06:03;54.23;;;20.63;;
65691;SDS011;52411;52.716;6.696;2024-01-11T05:08:29;57.20;;;23.93;;
65691;SDS011;52411;52.716;6.696;2024-01-11T05:10:54;52.13;;;20.20;;
65691;SDS011;52411;52.716;6.696;2024-01-11T05:13:20;47.93;;;18.37;;
65691;SDS011;52411;52.716;6.696;2024-01-11T05:15:46;41.83;;;17.17;;
65691;SDS011;52411;52.716;6.696;2024-01-11T05:18:12;45.17;;;18.40;;
65691;SDS011;52411;52.716;6.696;2024-01-11T05:20:38;49.07;;;20.17;;
65691;SDS011;52411;52.716;6.696;2024-01-11T05:23:03;46.53;;;19.03;;
65691;SDS011;52411;52.716;6.696;2024-01-11T05:25:29;57.17;;;22.43;;
65691;SDS011;52411;52.716;6.696;2024-01-11T05:28:04;52.40;;;21.00;;
65691;SDS011;52411;52.716;6.696;2024-01-11T05:30:30;50.10;;;19.03;;
65691;SDS011;52411;52.716;6.696;2024-01-11T05:32:55;50.25;;;19.60;;
65691;SDS011;52411;52.716;6.696;2024-01-11T05:35:21;23.95;;;11.40;;
65691;SDS011;52411;52.716;6.696;2024-01-11T05:37:52;41.83;;;18.08;;
65691;SDS011;52411;52.716;6.696;2024-01-11T05:40:19;57.47;;;21.17;;
65691;SDS011;52411;52.716;6.696;2024-01-11T05:42:45;27.17;;;13.10;;
65691;SDS011;52411;52.716;6.696;2024-01-11T05:45:11;25.25;;;10.82;;
65691;SDS011;52411;52.716;6.696;2024-01-11T05:47:36;49.70;;;20.27;;
65691;SDS011;52411;52.716;6.696;2024-01-11T05:50:02;32.35;;;12.43;;
65691;SDS011;52411;52.716;6.696;2024-01-11T05:52:27;44.70;;;19.45;;
65691;SDS011;52411;52.716;6.696;2024-01-11T05:54:53;55.08;;;20.23;;
65691;SDS011;52411;52.716;6.696;2024-01-11T05:57:19;50.87;;;20.93;;
65691;SDS011;52411;52.716;6.696;2024-01-11T05:59:44;57.50;;;23.35;;
65691;SDS011;52411;52.716;6.696;2024-01-11T06:02:10;56.80;;;20.83;;
65691;SDS011;52411;52.716;6.696;2024-01-11T06:04:36;54.55;;;20.58;;
65691;SDS011;52411;52.716;6.696;2024-01-11T06:07:02;55.15;;;21.92;;
65691;SDS011;52411;52.716;6.696;2024-01-11T06:09:27;53.45;;;21.85;;
65691;SDS011;52411;52.716;6.696;2024-01-11T06:11:53;50.17;;;20.83;;
65691;SDS011;52411;52.716;6.696;2024-01-11T06:14:19;51.53;;;19.98;;
65691;SDS011;52411;52.716;6.696;2024-01-11T06:16:44;47.00;;;18.77;;
65691;SDS011;52411;52.716;6.696;2024-01-11T06:19:10;55.40;;;22.15;;
65691;SDS011;52411;52.716;6.696;2024-01-11T06:21:36;56.00;;;23.05;;
65691;SDS011;52411;52.716;6.696;2024-01-11T06:24:02;54.15;;;21.50;;
65691;SDS011;52411;52.716;6.696;2024-01-11T06:26:28;55.72;;;23.17;;
65691;SDS011;52411;52.716;6.696;2024-01-11T06:28:54;52.92;;;22.15;;
65691;SDS011;52411;52.716;6.696;2024-01-11T06:31:19;40.50;;;15.88;;
65691;SDS011;52411;52.716;6.696;2024-01-11T06:33:45;51.13;;;22.08;;
65691;SDS011;52411;52.716;6.696;2024-01-11T06:36:10;53.03;;;23.50;;
65691;SDS011;52411;52.716;6.696;2024-01-11T06:38:36;59.60;;;22.25;;
65691;SDS011;52411;52.716;6.696;2024-01-11T06:41:02;53.28;;;20.83;;
65691;SDS011;52411;52.716;6.696;2024-01-11T06:43:27;52.58;;;22.58;;
65691;SDS011;52411;52.716;6.696;2024-01-11T06:45:53;59.45;;;22.13;;
65691;SDS011;52411;52.716;6.696;2024-01-11T06:48:18;59.30;;;22.15;;
65691;SDS011;52411;52.716;6.696;2024-01-11T06:50:44;54.88;;;22.85;;
65691;SDS011;52411;52.716;6.696;2024-01-11T06:53:10;52.78;;;21.90;;
65691;SDS011;52411;52.716;6.696;2024-01-11T06:55:35;61.47;;;23.55;;
65691;SDS011;52411;52.716;6.696;2024-01-11T06:58:01;55.22;;;21.92;;
65691;SDS011;52411;52.716;6.696;2024-01-11T07:00:27;55.67;;;22.73;;
65691;SDS011;52411;52.716;6.696;2024-01-11T07:02:53;59.63;;;24.00;;
65691;SDS011;52411;52.716;6.696;2024-01-11T07:05:18;57.63;;;23.88;;
65691;SDS011;52411;52.716;6.696;2024-01-11T07:07:44;54.03;;;22.55;;
65691;SDS011;52411;52.716;6.696;2024-01-11T07:10:10;63.85;;;22.08;;
65691;SDS011;52411;52.716;6.696;2024-01-11T07:12:35;57.03;;;23.40;;
65691;SDS011;52411;52.716;6.696;2024-01-11T07:15:03;57.78;;;23.45;;
65691;SDS011;52411;52.716;6.696;2024-01-11T07:17:29;55.70;;;22.92;;
65691;SDS011;52411;52.716;6.696;2024-01-11T07:19:55;55.55;;;23.27;;
65691;SDS011;52411;52.716;6.696;2024-01-11T07:22:21;60.40;;;24.00;;
65691;SDS011;52411;52.716;6.696;2024-01-11T07:24:46;62.70;;;26.02;;
65691;SDS011;52411;52.716;6.696;2024-01-11T07:27:12;56.03;;;22.75;;
65691;SDS011;52411;52.716;6.696;2024-01-11T07:29:38;56.25;;;24.17;;
65691;SDS011;52411;52.716;6.696;2024-01-11T07:32:03;58.53;;;23.65;;
65691;SDS011;52411;52.716;6.696;2024-01-11T07:34:29;65.57;;;24.25;;
65691;SDS011;52411;52.716;6.696;2024-01-11T07:36:55;60.22;;;23.55;;
65691;SDS011;52411;52.716;6.696;2024-01-11T07:39:21;58.63;;;23.75;;
65691;SDS011;52411;52.716;6.696;2024-01-11T07:41:47;57.35;;;23.40;;
65691;SDS011;52411;52.716;6.696;2024-01-11T07:44:13;59.92;;;24.55;;
65691;SDS011;52411;52.716;6.696;2024-01-11T07:46:38;52.65;;;21.27;;
65691;SDS011;52411;52.716;6.696;2024-01-11T07:49:04;62.47;;;23.63;;
65691;SDS011;52411;52.716;6.696;2024-01-11T07:51:30;55.55;;;22.90;;
65691;SDS011;52411;52.716;6.696;2024-01-11T07:53:56;61.13;;;23.23;;
65691;SDS011;52411;52.716;6.696;2024-01-11T07:56:21;56.90;;;22.98;;
65691;SDS011;52411;52.716;6.696;2024-01-11T07:58:47;54.78;;;23.35;;
65691;SDS011;52411;52.716;6.696;2024-01-11T08:01:13;54.33;;;22.58;;
65691;SDS011;52411;52.716;6.696;2024-01-11T08:03:40;57.85;;;22.95;;
65691;SDS011;52411;52.716;6.696;2024-01-11T08:06:06;55.67;;;21.63;;
65691;SDS011;52411;52.716;6.696;2024-01-11T08:08:32;58.67;;;23.75;;
65691;SDS011;52411;52.716;6.696;2024-01-11T08:10:58;58.10;;;24.25;;
65691;SDS011;52411;52.716;6.696;2024-01-11T08:13:24;59.83;;;22.98;;
65691;SDS011;52411;52.716;6.696;2024-01-11T08:15:50;58.00;;;23.05;;
65691;SDS011;52411;52.716;6.696;2024-01-11T08:18:17;57.35;;;22.60;;
65691;SDS011;52411;52.716;6.696;2024-01-11T08:20:43;61.72;;;24.63;;
65691;SDS011;52411;52.716;6.696;2024-01-11T08:23:09;63.85;;;24.73;;
65691;SDS011;52411;52.716;6.696;2024-01-11T08:25:35;63.83;;;23.33;;
65691;SDS011;52411;52.716;6.696;2024-01-11T08:28:00;62.47;;;24.05;;
65691;SDS011;52411;52.716;6.696;2024-01-11T08:30:28;67.97;;;24.35;;
65691;SDS011;52411;52.716;6.696;2024-01-11T08:32:53;55.47;;;23.45;;
65691;SDS011;52411;52.716;6.696;2024-01-11T08:35:20;61.95;;;24.48;;
65691;SDS011;52411;52.716;6.696;2024-01-11T08:37:46;60.65;;;25.13;;
65691;SDS011;52411;52.716;6.696;2024-01-11T08:40:11;60.25;;;23.95;;
65691;SDS011;52411;52.716;6.696;2024-01-11T08:42:37;63.80;;;24.20;;
65691;SDS011;52411;52.716;6.696;2024-01-11T08:45:05;62.50;;;25.33;;
65691;SDS011;52411;52.716;6.696;2024-01-11T08:47:32;66.72;;;25.88;;
65691;SDS011;52411;52.716;6.696;2024-01-11T08:50:03;65.50;;;25.60;;
65691;SDS011;52411;52.716;6.696;2024-01-11T08:52:31;65.85;;;26.15;;
65691;SDS011;52411;52.716;6.696;2024-01-11T08:54:57;64.55;;;26.60;;
65691;SDS011;52411;52.716;6.696;2024-01-11T08:57:23;68.82;;;25.88;;
65691;SDS011;52411;52.716;6.696;2024-01-11T08:59:48;58.38;;;23.92;;
65691;SDS011;52411;52.716;6.696;2024-01-11T09:02:14;72.60;;;27.13;;
65691;SDS011;52411;52.716;6.696;2024-01-11T09:04:40;70.50;;;26.73;;
65691;SDS011;52411;52.716;6.696;2024-01-11T09:07:05;61.20;;;25.55;;
65691;SDS011;52411;52.716;6.696;2024-01-11T09:09:31;68.00;;;27.35;;
65691;SDS011;52411;52.716;6.696;2024-01-11T09:11:57;68.57;;;24.75;;
65691;SDS011;52411;52.716;6.696;2024-01-11T09:14:22;63.95;;;25.58;;
65691;SDS011;52411;52.716;6.696;2024-01-11T09:16:48;62.15;;;25.15;;
65691;SDS011;52411;52.716;6.696;2024-01-11T09:19:16;68.78;;;26.33;;
65691;SDS011;52411;52.716;6.696;2024-01-11T09:21:41;62.60;;;24.17;;
65691;SDS011;52411;52.716;6.696;2024-01-11T09:24:07;63.53;;;25.15;;
65691;SDS011;52411;52.716;6.696;2024-01-11T09:26:33;60.78;;;24.00;;
65691;SDS011;52411;52.716;6.696;2024-01-11T09:28:58;63.03;;;25.17;;
65691;SDS011;52411;52.716;6.696;2024-01-11T09:31:24;61.10;;;23.52;;
65691;SDS011;52411;52.716;6.696;2024-01-11T09:33:49;62.83;;;25.92;;
65691;SDS011;52411;52.716;6.696;2024-01-11T09:36:15;57.55;;;24.77;;
65691;SDS011;52411;52.716;6.696;2024-01-11T09:38:41;61.83;;;24.63;;
65691;SDS011;52411;52.716;6.696;2024-01-11T09:41:08;59.58;;;22.65;;
65691;SDS011;52411;52.716;6.696;2024-01-11T09:43:36;56.90;;;23.63;;
65691;SDS011;52411;52.716;6.696;2024-01-11T09:46:05;58.00;;;24.17;;
65691;SDS011;52411;52.716;6.696;2024-01-11T09:48:32;61.50;;;24.70;;
65691;SDS011;52411;52.716;6.696;2024-01-11T09:50:59;63.70;;;25.90;;
65691;SDS011;52411;52.716;6.696;2024-01-11T09:53:26;62.67;;;23.40;;
65691;SDS011;52411;52.716;6.696;2024-01-11T09:55:53;62.13;;;23.85;;
65691;SDS011;52411;52.716;6.696;2024-01-11T09:58:20;68.45;;;26.63;;
65691;SDS011;52411;52.716;6.696;2024-01-11T10:00:47;61.63;;;26.23;;
65691;SDS011;52411;52.716;6.696;2024-01-11T10:03:20;58.17;;;22.10;;
65691;SDS011;52411;52.716;6.696;2024-01-11T10:05:48;63.15;;;24.98;;
65691;SDS011;52411;52.716;6.696;2024-01-11T10:08:16;63.67;;;26.73;;
65691;SDS011;52411;52.716;6.696;2024-01-11T10:10:44;66.78;;;27.67;;
65691;SDS011;52411;52.716;6.696;2024-01-11T10:13:09;70.18;;;27.15;;
65691;SDS011;52411;52.716;6.696;2024-01-11T10:15:36;63.33;;;25.20;;
65691;SDS011;52411;52.716;6.696;2024-01-11T10:18:01;59.22;;;24.83;;
65691;SDS011;52411;52.716;6.696;2024-01-11T10:20:27;67.95;;;25.67;;
65691;SDS011;52411;52.716;6.696;2024-01-11T10:22:55;62.70;;;23.70;;
65691;SDS011;52411;52.716;6.696;2024-01-11T10:25:21;63.03;;;25.25;;
65691;SDS011;52411;52.716;6.696;2024-01-11T10:27:48;55.05;;;23.63;;
65691;SDS011;52411;52.716;6.696;2024-01-11T10:30:14;72.30;;;25.98;;
65691;SDS011;52411;52.716;6.696;2024-01-11T10:32:41;61.22;;;25.23;;
65691;SDS011;52411;52.716;6.696;2024-01-11T10:35:07;61.70;;;24.90;;
65691;SDS011;52411;52.716;6.696;2024-01-11T10:37:33;65.47;;;24.30;;
65691;SDS011;52411;52.716;6.696;2024-01-11T10:40:03;60.03;;;25.80;;
65691;SDS011;52411;52.716;6.696;2024-01-11T10:42:34;64.10;;;24.15;;
65691;SDS011;52411;52.716;6.696;2024-01-11T10:45:02;60.47;;;24.50;;
65691;SDS011;52411;52.716;6.696;2024-01-11T10:47:33;59.90;;;24.33;;
65691;SDS011;52411;52.716;6.696;2024-01-11T10:53:20;61.85;;;23.58;;
65691;SDS011;52411;52.716;6.696;2024-01-11T10:55:53;62.08;;;24.45;;
65691;SDS011;52411;52.716;6.696;2024-01-11T10:58:21;62.65;;;23.50;;
65691;SDS011;52411;52.716;6.696;2024-01-11T11:00:48;67.15;;;26.55;;
65691;SDS011;52411;52.716;6.696;2024-01-11T11:03:16;66.65;;;25.52;;
65691;SDS011;52411;52.716;6.696;2024-01-11T11:05:43;59.80;;;24.27;;
65691;SDS011;52411;52.716;6.696;2024-01-11T11:08:09;60.35;;;23.05;;
65691;SDS011;52411;52.716;6.696;2024-01-11T11:10:36;66.53;;;24.92;;
65691;SDS011;52411;52.716;6.696;2024-01-11T11:13:05;63.28;;;24.20;;
65691;SDS011;52411;52.716;6.696;2024-01-11T11:15:31;77.47;;;24.73;;
65691;SDS011;52411;52.716;6.696;2024-01-11T11:17:58;60.65;;;24.85;;
65691;SDS011;52411;52.716;6.696;2024-01-11T11:20:24;64.00;;;23.52;;
65691;SDS011;52411;52.716;6.696;2024-01-11T11:23:05;66.93;;;23.70;;
65691;SDS011;52411;52.716;6.696;2024-01-11T11:25:32;60.90;;;23.45;;
65691;SDS011;52411;52.716;6.696;2024-01-11T11:27:58;59.45;;;23.52;;
65691;SDS011;52411;52.716;6.696;2024-01-11T11:30:29;66.90;;;23.17;;
65691;SDS011;52411;52.716;6.696;2024-01-11T11:32:56;59.88;;;22.67;;
65691;SDS011;52411;52.716;6.696;2024-01-11T11:35:25;55.05;;;22.27;;
65691;SDS011;52411;52.716;6.696;2024-01-11T11:37:56;58.15;;;22.58;;
65691;SDS011;52411;52.716;6.696;2024-01-11T11:40:31;58.33;;;22.13;;
65691;SDS011;52411;52.716;6.696;2024-01-11T11:43:10;59.67;;;22.13;;
65691;SDS011;52411;52.716;6.696;2024-01-11T11:45:35;60.80;;;23.20;;
65691;SDS011;52411;52.716;6.696;2024-01-11T11:51:09;54.75;;;22.00;;
65691;SDS011;52411;52.716;6.696;2024-01-11T11:53:36;58.10;;;22.10;;
65691;SDS011;52411;52.716;6.696;2024-01-11T11:56:03;63.40;;;23.52;;
65691;SDS011;52411;52.716;6.696;2024-01-11T11:58:30;56.20;;;23.25;;
65691;SDS011;52411;52.716;6.696;2024-01-11T12:00:57;59.20;;;22.90;;
65691;SDS011;52411;52.716;6.696;2024-01-11T12:03:30;58.35;;;22.80;;
65691;SDS011;52411;52.716;6.696;2024-01-11T12:06:02;62.22;;;22.27;;
65691;SDS011;52411;52.716;6.696;2024-01-11T12:08:28;58.22;;;21.33;;
65691;SDS011;52411;52.716;6.696;2024-01-11T12:10:54;52.58;;;20.33;;
65691;SDS011;52411;52.716;6.696;2024-01-11T12:13:20;53.65;;;20.30;;
65691;SDS011;52411;52.716;6.696;2024-01-11T12:15:49;53.75;;;21.27;;
65691;SDS011;52411;52.716;6.696;2024-01-11T12:26:54;54.75;;;19.67;;
65691;SDS011;52411;52.716;6.696;2024-01-11T12:29:20;51.22;;;19.85;;
65691;SDS011;52411;52.716;6.696;2024-01-11T12:31:46;49.13;;;19.73;;
65691;SDS011;52411;52.716;6.696;2024-01-11T12:34:12;49.97;;;19.52;;
65691;SDS011;52411;52.716;6.696;2024-01-11T12:36:39;61.88;;;20.98;;
65691;SDS011;52411;52.716;6.696;2024-01-11T12:39:05;49.22;;;19.10;;
65691;SDS011;52411;52.716;6.696;2024-01-11T12:41:32;53.78;;;20.95;;
65691;SDS011;52411;52.716;6.696;2024-01-11T12:43:58;50.30;;;19.15;;
65691;SDS011;52411;52.716;6.696;2024-01-11T12:46:24;50.83;;;19.08;;
65691;SDS011;52411;52.716;6.696;2024-01-11T12:48:49;53.17;;;19.30;;
65691;SDS011;52411;52.716;6.696;2024-01-11T12:51:16;50.92;;;19.50;;
65691;SDS011;52411;52.716;6.696;2024-01-11T12:53:46;54.92;;;21.00;;
65691;SDS011;52411;52.716;6.696;2024-01-11T12:59:54;52.42;;;19.98;;
65691;SDS011;52411;52.716;6.696;2024-01-11T13:02:33;49.80;;;19.27;;
65691;SDS011;52411;52.716;6.696;2024-01-11T13:04:59;50.03;;;20.45;;
65691;SDS011;52411;52.716;6.696;2024-01-11T13:07:27;52.58;;;20.33;;
65691;SDS011;52411;52.716;6.696;2024-01-11T13:09:52;50.53;;;20.10;;
65691;SDS011;52411;52.716;6.696;2024-01-11T13:12:18;51.88;;;20.23;;
65691;SDS011;52411;52.716;6.696;2024-01-11T13:14:46;50.58;;;19.42;;
65691;SDS011;52411;52.716;6.696;2024-01-11T13:20:53;53.10;;;20.55;;
65691;SDS011;52411;52.716;6.696;2024-01-11T13:23:19;57.65;;;22.05;;
65691;SDS011;52411;52.716;6.696;2024-01-11T13:25:46;55.08;;;20.80;;
65691;SDS011;52411;52.716;6.696;2024-01-11T13:28:13;55.50;;;21.70;;
65691;SDS011;52411;52.716;6.696;2024-01-11T13:30:41;49.28;;;20.30;;
65691;SDS011;52411;52.716;6.696;2024-01-11T13:35:37;53.25;;;21.42;;
65691;SDS011;52411;52.716;6.696;2024-01-11T13:38:04;53.95;;;21.45;;
65691;SDS011;52411;52.716;6.696;2024-01-11T13:40:30;53.00;;;20.83;;
65691;SDS011;52411;52.716;6.696;2024-01-11T13:42:56;52.10;;;20.70;;
65691;SDS011;52411;52.716;6.696;2024-01-11T13:45:22;53.42;;;21.40;;
65691;SDS011;52411;52.716;6.696;2024-01-11T13:47:48;54.05;;;21.60;;
65691;SDS011;52411;52.716;6.696;2024-01-11T13:50:14;55.67;;;20.65;;
65691;SDS011;52411;52.716;6.696;2024-01-11T13:52:40;53.03;;;19.95;;
65691;SDS011;52411;52.716;6.696;2024-01-11T13:55:06;57.22;;;21.48;;
65691;SDS011;52411;52.716;6.696;2024-01-11T13:57:35;57.28;;;20.25;;
65691;SDS011;52411;52.716;6.696;2024-01-11T14:00:02;49.97;;;21.08;;
65691;SDS011;52411;52.716;6.696;2024-01-11T14:02:28;56.05;;;21.90;;
65691;SDS011;52411;52.716;6.696;2024-01-11T14:04:53;53.15;;;20.73;;
65691;SDS011;52411;52.716;6.696;2024-01-11T14:07:19;57.78;;;20.33;;
65691;SDS011;52411;52.716;6.696;2024-01-11T14:09:44;54.05;;;21.58;;
65691;SDS011;52411;52.716;6.696;2024-01-11T14:12:11;56.22;;;20.75;;
65691;SDS011;52411;52.716;6.696;2024-01-11T14:14:37;58.75;;;21.30;;
65691;SDS011;52411;52.716;6.696;2024-01-11T14:17:02;51.83;;;19.60;;
65691;SDS011;52411;52.716;6.696;2024-01-11T14:19:28;56.00;;;20.50;;
65691;SDS011;52411;52.716;6.696;2024-01-11T14:21:53;58.30;;;20.67;;
65691;SDS011;52411;52.716;6.696;2024-01-11T14:24:19;52.90;;;21.13;;
65691;SDS011;52411;52.716;6.696;2024-01-11T14:26:44;53.80;;;21.23;;
65691;SDS011;52411;52.716;6.696;2024-01-11T14:29:10;57.17;;;21.60;;
65691;SDS011;52411;52.716;6.696;2024-01-11T14:31:36;50.60;;;19.83;;
65691;SDS011;52411;52.716;6.696;2024-01-11T14:34:02;55.67;;;21.23;;
65691;SDS011;52411;52.716;6.696;2024-01-11T14:36:28;54.60;;;21.48;;
65691;SDS011;52411;52.716;6.696;2024-01-11T14:38:55;57.47;;;22.95;;
65691;SDS011;52411;52.716;6.696;2024-01-11T14:41:20;62.08;;;22.80;;
65691;SDS011;52411;52.716;6.696;2024-01-11T14:43:46;59.33;;;23.40;;